Time;durP1;ratioP1;P1;durP2;ratioP2;P2;SDS_P1;SDS_P2;PMS_P1;PMS_P2;Temp;Humidity;BMP_temperature;BMP_pressure;BME280_temperature;BME280_humidity;BME280_pressure;Samples;Min_cycle;Max_cycle;Signal;HPM_P1;HPM_P2
2024/02/14 00:02:09;;;;;;;23.00;14.70;;;;;;;;;;769536;180;904519;-68
2024/02/14 00:04:35;;;;;;;23.20;13.93;;;;;;;;;;771091;179;921280;-61
2024/02/14 00:07:01;;;;;;;25.57;16.50;;;;;;;;;;775820;179;808852;-62
2024/02/14 00:09:27;;;;;;;49.95;19.37;;;;;;;;;;762524;180;782885;-69
2024/02/14 00:11:53;;;;;;;28.97;14.40;;;;;;;;;;766993;180;996272;-67
2024/02/14 00:14:20;;;;;;;26.67;17.40;;;;;;;;;;767634;180;918888;-61
2024/02/14 00:16:45;;;;;;;28.87;16.47;;;;;;;;;;774437;180;918682;-62
2024/02/14 00:19:11;;;;;;;36.70;17.57;;;;;;;;;;770097;179;918523;-61
2024/02/14 00:21:38;;;;;;;43.23;19.23;;;;;;;;;;768620;180;919172;-61
2024/02/14 00:24:03;;;;;;;47.70;22.70;;;;;;;;;;772293;181;883346;-67
2024/02/14 00:26:29;;;;;;;47.90;22.50;;;;;;;;;;771159;179;919628;-67
2024/02/14 00:28:55;;;;;;;44.93;21.80;;;;;;;;;;771379;180;918968;-67
2024/02/14 00:31:20;;;;;;;41.20;16.40;;;;;;;;;;773546;180;918779;-67
2024/02/14 00:33:46;;;;;;;70.68;21.80;;;;;;;;;;768674;180;918645;-61
2024/02/14 00:36:12;;;;;;;37.40;19.27;;;;;;;;;;767987;180;919314;-62
2024/02/14 00:38:38;;;;;;;33.03;18.40;;;;;;;;;;770107;180;815980;-69
2024/02/14 00:41:04;;;;;;;53.07;21.77;;;;;;;;;;775803;180;809520;-61
2024/02/14 00:43:30;;;;;;;48.10;19.47;;;;;;;;;;767740;180;1020332;-61
2024/02/14 00:45:56;;;;;;;87.87;26.03;;;;;;;;;;769059;180;870914;-61
2024/02/14 00:48:22;;;;;;;85.13;24.10;;;;;;;;;;777036;180;718219;-67
2024/02/14 00:50:48;;;;;;;56.03;21.07;;;;;;;;;;769594;180;818652;-67
2024/02/14 00:53:14;;;;;;;75.62;24.33;;;;;;;;;;768866;180;871285;-68
2024/02/14 00:55:39;;;;;;;58.43;21.77;;;;;;;;;;773927;180;878467;-68
2024/02/14 00:58:06;;;;;;;54.67;20.83;;;;;;;;;;768654;180;1022464;-67
2024/02/14 01:00:32;;;;;;;67.17;21.57;;;;;;;;;;768916;180;816265;-61
2024/02/14 01:02:58;;;;;;;48.97;20.07;;;;;;;;;;763914;180;853549;-61
2024/02/14 01:05:24;;;;;;;55.27;19.50;;;;;;;;;;777067;180;816743;-61
2024/02/14 01:07:50;;;;;;;77.13;21.03;;;;;;;;;;771569;180;916833;-61
2024/02/14 01:10:15;;;;;;;58.87;20.30;;;;;;;;;;767953;180;918817;-61
2024/02/14 01:12:41;;;;;;;70.17;19.90;;;;;;;;;;774119;180;819161;-61
2024/02/14 01:15:07;;;;;;;64.77;22.70;;;;;;;;;;765661;181;918599;-61
2024/02/14 01:17:36;;;;;;;36.83;17.17;;;;;;;;;;768812;180;918636;-61
2024/02/14 01:19:59;;;;;;;58.97;20.30;;;;;;;;;;772026;180;916834;-61
2024/02/14 01:22:25;;;;;;;42.10;19.42;;;;;;;;;;767777;180;918260;-61
2024/02/14 01:24:51;;;;;;;46.03;19.40;;;;;;;;;;771347;180;883272;-67
2024/02/14 01:27:17;;;;;;;35.50;19.23;;;;;;;;;;769607;180;918749;-67
2024/02/14 01:29:43;;;;;;;41.42;18.95;;;;;;;;;;763922;183;896850;-61
2024/02/14 01:32:09;;;;;;;46.43;20.23;;;;;;;;;;767520;179;1023156;-69
2024/02/14 01:34:34;;;;;;;49.87;18.67;;;;;;;;;;767372;181;919459;-67
2024/02/14 01:37:00;;;;;;;73.67;27.17;;;;;;;;;;774697;178;920038;-61
2024/02/14 01:39:26;;;;;;;60.87;23.30;;;;;;;;;;773586;180;851149;-68
2024/02/14 01:41:52;;;;;;;33.10;17.47;;;;;;;;;;772015;180;918824;-61
2024/02/14 01:44:18;;;;;;;42.13;19.33;;;;;;;;;;776303;179;920031;-61
2024/02/14 01:46:43;;;;;;;58.43;21.87;;;;;;;;;;771514;180;919377;-67
2024/02/14 01:49:09;;;;;;;100.30;25.27;;;;;;;;;;773796;179;813190;-67
2024/02/14 01:51:35;;;;;;;88.65;26.10;;;;;;;;;;771997;179;878356;-67
2024/02/14 01:54:02;;;;;;;66.57;24.03;;;;;;;;;;770992;181;918307;-61
2024/02/14 01:56:27;;;;;;;79.87;28.40;;;;;;;;;;765261;180;918978;-61
2024/02/14 01:58:53;;;;;;;77.13;25.30;;;;;;;;;;770209;180;871520;-61
2024/02/14 02:01:19;;;;;;;65.97;25.80;;;;;;;;;;774585;180;915860;-61
2024/02/14 02:03:45;;;;;;;59.87;26.10;;;;;;;;;;768396;180;919908;-67
2024/02/14 02:06:10;;;;;;;80.07;22.73;;;;;;;;;;779483;180;816604;-67
2024/02/14 02:08:36;;;;;;;70.07;24.10;;;;;;;;;;769960;180;921292;-61
2024/02/14 02:11:02;;;;;;;53.40;21.57;;;;;;;;;;770729;180;1026274;-67
2024/02/14 02:13:28;;;;;;;83.93;24.10;;;;;;;;;;774038;180;761708;-61
2024/02/14 02:15:54;;;;;;;98.23;26.40;;;;;;;;;;773877;180;917429;-69
2024/02/14 02:18:20;;;;;;;60.97;20.40;;;;;;;;;;770165;180;918243;-67
2024/02/14 02:20:46;;;;;;;98.67;24.40;;;;;;;;;;767992;181;917623;-69
2024/02/14 02:23:14;;;;;;;84.53;24.03;;;;;;;;;;771038;180;917481;-61
2024/02/14 02:25:40;;;;;;;62.53;24.30;;;;;;;;;;770676;180;918888;-61
2024/02/14 02:28:06;;;;;;;91.33;25.63;;;;;;;;;;769417;180;919322;-61
2024/02/14 02:30:32;;;;;;;72.23;24.33;;;;;;;;;;769416;180;918646;-61
2024/02/14 02:32:58;;;;;;;86.80;26.13;;;;;;;;;;775843;180;917722;-61
2024/02/14 02:35:24;;;;;;;96.77;22.20;;;;;;;;;;766896;180;918129;-67
2024/02/14 02:37:50;;;;;;;68.53;19.97;;;;;;;;;;770816;177;915024;-60
2024/02/14 02:40:16;;;;;;;65.90;25.10;;;;;;;;;;773320;179;920596;-67
2024/02/14 02:42:41;;;;;;;70.77;21.27;;;;;;;;;;768390;180;921108;-69
2024/02/14 02:45:07;;;;;;;61.53;21.80;;;;;;;;;;767909;180;915514;-67
2024/02/14 02:47:33;;;;;;;38.40;18.13;;;;;;;;;;767891;181;926857;-67
2024/02/14 02:50:01;;;;;;;29.57;15.40;;;;;;;;;;772679;179;915606;-67
2024/02/14 02:52:25;;;;;;;46.60;19.57;;;;;;;;;;774523;180;836746;-61
2024/02/14 02:54:52;;;;;;;40.60;17.97;;;;;;;;;;772418;180;910181;-60
2024/02/14 02:57:18;;;;;;;37.27;18.63;;;;;;;;;;777407;179;919425;-61
2024/02/14 02:59:44;;;;;;;49.43;18.53;;;;;;;;;;769163;180;918569;-67
2024/02/14 03:02:09;;;;;;;34.33;17.43;;;;;;;;;;770718;181;916905;-69
2024/02/14 03:04:34;;;;;;;29.40;17.33;;;;;;;;;;773910;180;914892;-60
2024/02/14 03:07:07;;;;;;;31.87;17.30;;;;;;;;;;771217;180;917938;-60
2024/02/14 03:09:27;;;;;;;28.83;17.00;;;;;;;;;;765087;180;919461;-62
2024/02/14 03:11:51;;;;;;;29.70;15.47;;;;;;;;;;766835;180;868944;-67
2024/02/14 03:14:17;;;;;;;27.90;15.57;;;;;;;;;;772716;180;917928;-69
2024/02/14 03:16:43;;;;;;;32.47;17.93;;;;;;;;;;771235;180;900123;-67
2024/02/14 03:19:09;;;;;;;34.78;17.20;;;;;;;;;;768743;180;940654;-61
2024/02/14 03:21:35;;;;;;;34.93;18.57;;;;;;;;;;770440;180;919479;-67
2024/02/14 03:24:01;;;;;;;32.95;18.00;;;;;;;;;;770262;180;919075;-67
2024/02/14 03:26:27;;;;;;;30.57;15.90;;;;;;;;;;768392;180;942110;-61
2024/02/14 03:28:54;;;;;;;30.83;15.77;;;;;;;;;;774039;180;919524;-66
2024/02/14 03:31:18;;;;;;;35.00;17.30;;;;;;;;;;767041;179;922883;-69
2024/02/14 03:33:44;;;;;;;45.53;18.10;;;;;;;;;;767670;180;910589;-61
2024/02/14 03:36:10;;;;;;;58.57;22.47;;;;;;;;;;768327;180;919537;-67
2024/02/14 03:38:36;;;;;;;62.53;24.67;;;;;;;;;;776576;180;673198;-60
2024/02/14 03:41:02;;;;;;;57.73;24.00;;;;;;;;;;763731;182;920546;-60
2024/02/14 03:43:27;;;;;;;64.97;24.17;;;;;;;;;;758547;183;992918;-67
2024/02/14 03:45:54;;;;;;;55.67;22.37;;;;;;;;;;777965;180;806573;-61
2024/02/14 03:48:19;;;;;;;40.40;19.43;;;;;;;;;;768176;181;921169;-61
2024/02/14 03:50:45;;;;;;;45.93;18.20;;;;;;;;;;768311;180;919056;-61
2024/02/14 03:53:11;;;;;;;39.90;17.90;;;;;;;;;;775938;180;749286;-67
2024/02/14 03:55:37;;;;;;;53.53;21.83;;;;;;;;;;766581;181;890496;-67
2024/02/14 03:58:04;;;;;;;59.33;24.80;;;;;;;;;;760743;180;917733;-61
2024/02/14 04:00:29;;;;;;;63.40;27.10;;;;;;;;;;769517;179;917797;-66
2024/02/14 04:02:58;;;;;;;74.13;25.23;;;;;;;;;;771249;179;883668;-61
2024/02/14 04:05:20;;;;;;;46.00;22.10;;;;;;;;;;763870;180;868325;-61
2024/02/14 04:07:51;;;;;;;56.53;22.87;;;;;;;;;;769679;180;917927;-60
2024/02/14 04:10:13;;;;;;;49.63;23.40;;;;;;;;;;775837;180;904683;-68
2024/02/14 04:12:38;;;;;;;46.40;26.30;;;;;;;;;;769922;180;925415;-67
2024/02/14 04:15:04;;;;;;;54.38;22.98;;;;;;;;;;772015;179;920621;-67
2024/02/14 04:17:30;;;;;;;45.10;24.40;;;;;;;;;;773099;180;868123;-60
2024/02/14 04:19:56;;;;;;;34.10;18.50;;;;;;;;;;772707;180;814870;-59
2024/02/14 04:22:21;;;;;;;59.50;22.70;;;;;;;;;;767607;180;915189;-61
2024/02/14 04:24:47;;;;;;;53.63;25.23;;;;;;;;;;764762;180;916206;-61
2024/02/14 04:27:13;;;;;;;92.00;39.03;;;;;;;;;;760605;183;920996;-61
2024/02/14 04:29:39;;;;;;;60.93;21.43;;;;;;;;;;760472;181;1020371;-66
2024/02/14 04:32:05;;;;;;;241.50;95.93;;;;;;;;;;770990;180;920284;-67
2024/02/14 04:34:31;;;;;;;296.63;123.23;;;;;;;;;;777693;180;919051;-67
2024/02/14 04:36:57;;;;;;;125.13;51.70;;;;;;;;;;770480;180;919463;-61
2024/02/14 04:39:23;;;;;;;173.53;87.23;;;;;;;;;;767947;180;871928;-61
2024/02/14 04:41:50;;;;;;;61.40;34.43;;;;;;;;;;775253;180;974532;-66
2024/02/14 04:44:14;;;;;;;23.33;15.43;;;;;;;;;;769940;180;826533;-67
2024/02/14 04:46:43;;;;;;;217.17;100.77;;;;;;;;;;767064;181;1004965;-61
2024/02/14 04:49:06;;;;;;;151.93;71.55;;;;;;;;;;771838;180;941978;-67
2024/02/14 04:51:32;;;;;;;40.50;20.90;;;;;;;;;;772036;179;817453;-67
2024/02/14 04:53:59;;;;;;;129.87;64.23;;;;;;;;;;769223;178;918504;-67
2024/02/14 04:56:25;;;;;;;48.17;16.70;;;;;;;;;;766337;181;918761;-66
2024/02/14 04:58:50;;;;;;;35.77;13.60;;;;;;;;;;777299;180;719108;-61
2024/02/14 05:01:18;;;;;;;29.27;13.57;;;;;;;;;;772502;180;811656;-61
2024/02/14 05:03:42;;;;;;;58.97;26.43;;;;;;;;;;768754;180;918920;-67
2024/02/14 05:06:08;;;;;;;36.40;15.30;;;;;;;;;;774135;180;819050;-60
2024/02/14 05:08:34;;;;;;;23.07;12.23;;;;;;;;;;767051;180;851707;-61
2024/02/14 05:11:00;;;;;;;141.23;59.53;;;;;;;;;;769467;180;876197;-67
2024/02/14 05:13:26;;;;;;;44.03;15.90;;;;;;;;;;776534;179;845384;-61
2024/02/14 05:15:51;;;;;;;58.53;23.30;;;;;;;;;;775419;180;818152;-61
2024/02/14 05:18:17;;;;;;;24.10;14.70;;;;;;;;;;773255;180;797061;-67
2024/02/14 05:20:44;;;;;;;35.73;13.17;;;;;;;;;;774620;180;812479;-61
2024/02/14 05:23:11;;;;;;;40.00;20.73;;;;;;;;;;772619;180;630201;-69
2024/02/14 05:25:35;;;;;;;38.53;16.57;;;;;;;;;;771093;179;627878;-61
2024/02/14 05:28:01;;;;;;;35.03;14.87;;;;;;;;;;769832;181;938788;-69
2024/02/14 05:30:27;;;;;;;26.07;14.60;;;;;;;;;;773696;180;861600;-61
2024/02/14 05:32:52;;;;;;;29.43;14.60;;;;;;;;;;771178;180;859786;-60
2024/02/14 05:35:18;;;;;;;30.37;14.60;;;;;;;;;;768036;180;946077;-67
2024/02/14 05:37:50;;;;;;;30.70;15.13;;;;;;;;;;775715;180;916121;-61
2024/02/14 05:40:10;;;;;;;28.03;14.40;;;;;;;;;;772293;180;918689;-67
2024/02/14 05:42:36;;;;;;;38.33;16.13;;;;;;;;;;771164;180;1014243;-68
2024/02/14 05:45:03;;;;;;;40.40;17.27;;;;;;;;;;771569;180;917556;-61
2024/02/14 05:47:28;;;;;;;42.53;19.50;;;;;;;;;;774322;180;911257;-67
2024/02/14 05:49:54;;;;;;;35.13;17.97;;;;;;;;;;759429;182;1017485;-61
2024/02/14 05:52:21;;;;;;;29.57;15.27;;;;;;;;;;767668;181;918779;-67
2024/02/14 05:54:46;;;;;;;34.70;17.90;;;;;;;;;;773019;180;817965;-61
2024/02/14 05:57:11;;;;;;;32.80;15.95;;;;;;;;;;761975;183;919434;-67
2024/02/14 05:59:37;;;;;;;30.03;16.33;;;;;;;;;;758646;184;892492;-68
2024/02/14 06:02:05;;;;;;;34.53;15.90;;;;;;;;;;773240;181;818368;-68
2024/02/14 06:04:29;;;;;;;33.13;18.00;;;;;;;;;;769264;180;920612;-61
2024/02/14 06:06:55;;;;;;;31.87;18.77;;;;;;;;;;770285;180;876319;-67
2024/02/14 06:09:21;;;;;;;32.83;16.97;;;;;;;;;;771470;180;819102;-66
2024/02/14 06:11:47;;;;;;;37.27;17.73;;;;;;;;;;772820;181;919245;-69
2024/02/14 06:14:13;;;;;;;38.27;19.13;;;;;;;;;;765030;181;834703;-67
2024/02/14 06:16:39;;;;;;;33.40;18.00;;;;;;;;;;765181;181;875398;-60
2024/02/14 06:19:05;;;;;;;33.70;17.97;;;;;;;;;;775985;181;817375;-61
2024/02/14 06:21:32;;;;;;;32.30;17.20;;;;;;;;;;770723;180;918892;-66
2024/02/14 06:23:58;;;;;;;38.28;19.95;;;;;;;;;;774693;177;853423;-61
2024/02/14 06:26:22;;;;;;;44.87;20.83;;;;;;;;;;777333;180;919745;-68
2024/02/14 06:28:54;;;;;;;33.17;15.50;;;;;;;;;;769120;180;920413;-67
2024/02/14 06:31:14;;;;;;;33.23;16.53;;;;;;;;;;771441;180;916089;-61
2024/02/14 06:33:40;;;;;;;36.03;17.30;;;;;;;;;;774463;180;915395;-61
2024/02/14 06:36:06;;;;;;;32.10;17.87;;;;;;;;;;770544;180;812330;-60
2024/02/14 06:38:32;;;;;;;30.10;16.55;;;;;;;;;;771890;180;916324;-67
2024/02/14 06:40:57;;;;;;;30.30;16.70;;;;;;;;;;766965;180;983609;-61
2024/02/14 06:43:23;;;;;;;22.00;14.43;;;;;;;;;;776580;180;817893;-67
2024/02/14 06:45:49;;;;;;;30.00;19.10;;;;;;;;;;768557;180;816443;-60
2024/02/14 06:48:15;;;;;;;33.17;19.97;;;;;;;;;;766507;180;957193;-68
2024/02/14 06:50:41;;;;;;;27.53;18.30;;;;;;;;;;776592;180;917091;-69
2024/02/14 06:53:07;;;;;;;47.23;28.40;;;;;;;;;;771053;179;919972;-61
2024/02/14 06:55:33;;;;;;;51.50;27.07;;;;;;;;;;766735;180;918349;-61
2024/02/14 06:57:58;;;;;;;44.83;23.40;;;;;;;;;;771235;180;917575;-67
2024/02/14 07:00:24;;;;;;;39.03;23.53;;;;;;;;;;767301;180;816672;-69
2024/02/14 07:02:50;;;;;;;25.90;14.20;;;;;;;;;;768052;180;918910;-61
2024/02/14 07:05:16;;;;;;;16.12;11.63;;;;;;;;;;766932;180;878092;-62
2024/02/14 07:07:42;;;;;;;18.67;11.27;;;;;;;;;;775942;180;913871;-61
2024/02/14 07:10:08;;;;;;;20.50;13.27;;;;;;;;;;765709;180;917215;-67
2024/02/14 07:12:35;;;;;;;20.43;13.33;;;;;;;;;;772053;179;847545;-61
2024/02/14 07:15:00;;;;;;;21.40;11.70;;;;;;;;;;774835;180;871260;-69
2024/02/14 07:17:25;;;;;;;20.17;11.00;;;;;;;;;;768282;181;818890;-68
2024/02/14 07:19:51;;;;;;;20.77;14.03;;;;;;;;;;771746;180;917583;-68
2024/02/14 07:22:20;;;;;;;20.43;12.50;;;;;;;;;;771646;181;916466;-62
2024/02/14 07:24:46;;;;;;;25.57;15.07;;;;;;;;;;774433;180;815737;-62
2024/02/14 07:27:12;;;;;;;28.83;17.00;;;;;;;;;;770086;180;921510;-68
2024/02/14 07:29:37;;;;;;;23.47;14.90;;;;;;;;;;764019;180;911385;-62
2024/02/14 07:32:04;;;;;;;23.33;15.60;;;;;;;;;;772152;180;878907;-62
2024/02/14 07:34:30;;;;;;;24.33;14.10;;;;;;;;;;772485;179;863312;-62
2024/02/14 07:36:56;;;;;;;25.33;15.30;;;;;;;;;;773495;180;921107;-63
2024/02/14 07:39:22;;;;;;;24.70;15.27;;;;;;;;;;771968;181;1019434;-65
2024/02/14 07:41:47;;;;;;;22.43;13.90;;;;;;;;;;766781;180;919079;-65
2024/02/14 07:44:13;;;;;;;23.70;15.00;;;;;;;;;;769922;180;919162;-67
2024/02/14 07:46:39;;;;;;;22.40;14.83;;;;;;;;;;776108;180;913908;-66
2024/02/14 07:49:06;;;;;;;19.83;13.17;;;;;;;;;;772412;180;918951;-66
2024/02/14 07:51:36;;;;;;;21.07;13.00;;;;;;;;;;765402;180;850784;-67
2024/02/14 07:53:57;;;;;;;24.20;13.70;;;;;;;;;;770939;180;913488;-67
2024/02/14 07:56:23;;;;;;;19.80;13.93;;;;;;;;;;775105;179;918891;-67
2024/02/14 07:58:49;;;;;;;19.33;12.67;;;;;;;;;;766362;180;817810;-68
2024/02/14 08:01:14;;;;;;;19.10;13.10;;;;;;;;;;768909;181;918578;-66
2024/02/14 08:03:40;;;;;;;20.00;13.20;;;;;;;;;;774117;177;818768;-67
2024/02/14 08:06:06;;;;;;;19.23;12.07;;;;;;;;;;774988;180;636844;-70
2024/02/14 08:08:32;;;;;;;21.10;13.20;;;;;;;;;;770322;180;923587;-67
2024/02/14 08:10:58;;;;;;;20.03;14.70;;;;;;;;;;775051;180;817016;-69
2024/02/14 08:13:23;;;;;;;22.13;15.07;;;;;;;;;;768232;180;817994;-67
2024/02/14 08:15:49;;;;;;;23.50;13.73;;;;;;;;;;767926;180;809319;-68
2024/02/14 08:18:15;;;;;;;19.70;12.03;;;;;;;;;;767523;180;919108;-67
2024/02/14 08:20:41;;;;;;;17.17;11.80;;;;;;;;;;774956;181;615846;-69
2024/02/14 08:23:07;;;;;;;21.10;12.27;;;;;;;;;;770170;181;629193;-70
2024/02/14 08:25:33;;;;;;;23.00;12.73;;;;;;;;;;767734;181;935564;-68
2024/02/14 08:27:59;;;;;;;19.70;13.10;;;;;;;;;;769452;181;623032;-69
2024/02/14 08:30:24;;;;;;;22.10;12.70;;;;;;;;;;767488;179;713610;-64
2024/02/14 08:32:50;;;;;;;21.70;12.33;;;;;;;;;;773839;180;632280;-69
2024/02/14 08:35:16;;;;;;;20.95;12.40;;;;;;;;;;781015;180;813128;-70
2024/02/14 08:37:42;;;;;;;20.95;11.77;;;;;;;;;;772013;180;919249;-64
2024/02/14 08:40:11;;;;;;;17.13;10.80;;;;;;;;;;772158;181;918741;-68
2024/02/14 08:42:34;;;;;;;15.67;10.33;;;;;;;;;;773834;180;923014;-64
2024/02/14 08:45:00;;;;;;;21.13;12.57;;;;;;;;;;768451;180;1026163;-65
2024/02/14 08:47:26;;;;;;;15.60;10.30;;;;;;;;;;768016;180;1023200;-65
2024/02/14 08:49:51;;;;;;;16.03;11.50;;;;;;;;;;767550;180;921129;-65
2024/02/14 08:52:18;;;;;;;20.17;11.63;;;;;;;;;;772000;180;860318;-68
2024/02/14 08:54:43;;;;;;;19.00;13.00;;;;;;;;;;771747;180;917874;-65
2024/02/14 08:57:10;;;;;;;19.20;13.00;;;;;;;;;;769318;180;918798;-65
2024/02/14 08:59:36;;;;;;;17.10;10.55;;;;;;;;;;774177;180;919016;-65
2024/02/14 09:02:03;;;;;;;16.03;10.50;;;;;;;;;;771509;180;922331;-65
2024/02/14 09:04:29;;;;;;;17.40;11.47;;;;;;;;;;776089;180;812658;-65
2024/02/14 09:06:55;;;;;;;19.50;11.05;;;;;;;;;;774089;180;918919;-65
2024/02/14 09:09:21;;;;;;;20.10;11.53;;;;;;;;;;771227;180;919095;-64
2024/02/14 09:11:47;;;;;;;21.47;13.07;;;;;;;;;;765192;180;815468;-64
2024/02/14 09:14:13;;;;;;;17.87;11.53;;;;;;;;;;765705;180;939496;-65
2024/02/14 09:16:39;;;;;;;20.70;13.17;;;;;;;;;;774912;181;917257;-65
2024/02/14 09:19:07;;;;;;;22.97;13.17;;;;;;;;;;770423;180;921870;-65
2024/02/14 09:21:33;;;;;;;19.00;12.52;;;;;;;;;;772970;180;919256;-67
2024/02/14 09:23:57;;;;;;;19.50;11.13;;;;;;;;;;774210;180;919135;-67
2024/02/14 09:26:22;;;;;;;21.60;12.70;;;;;;;;;;771782;179;1017792;-67
2024/02/14 09:28:48;;;;;;;20.70;13.87;;;;;;;;;;770958;180;904830;-64
2024/02/14 09:31:14;;;;;;;22.63;12.70;;;;;;;;;;776142;179;918018;-69
2024/02/14 09:33:40;;;;;;;18.92;12.37;;;;;;;;;;765788;180;918976;-65
2024/02/14 09:36:06;;;;;;;20.10;13.37;;;;;;;;;;763256;181;918932;-68
2024/02/14 09:38:32;;;;;;;25.70;13.17;;;;;;;;;;768167;181;909035;-68
2024/02/14 09:40:59;;;;;;;19.50;11.53;;;;;;;;;;772274;180;715619;-68
2024/02/14 09:43:24;;;;;;;22.45;12.48;;;;;;;;;;769314;180;919607;-68
2024/02/14 09:45:50;;;;;;;22.80;14.90;;;;;;;;;;771291;180;918316;-70
2024/02/14 09:48:16;;;;;;;19.10;12.03;;;;;;;;;;769784;180;920072;-68
2024/02/14 09:50:42;;;;;;;20.75;13.15;;;;;;;;;;769416;180;919343;-68
2024/02/14 09:53:08;;;;;;;23.37;12.33;;;;;;;;;;775785;179;810038;-64
2024/02/14 09:55:34;;;;;;;25.03;14.03;;;;;;;;;;777938;180;916260;-65
2024/02/14 09:58:03;;;;;;;21.73;13.20;;;;;;;;;;773456;180;803953;-68
2024/02/14 10:00:25;;;;;;;20.33;13.10;;;;;;;;;;768214;180;921868;-68
2024/02/14 10:02:51;;;;;;;21.13;13.30;;;;;;;;;;766744;180;815673;-67
2024/02/14 10:05:17;;;;;;;23.67;12.50;;;;;;;;;;775835;180;854686;-68
2024/02/14 10:07:43;;;;;;;22.73;12.23;;;;;;;;;;769559;180;1016004;-65
2024/02/14 10:10:09;;;;;;;24.30;13.38;;;;;;;;;;771996;180;916065;-65
2024/02/14 10:12:35;;;;;;;20.70;12.40;;;;;;;;;;777298;180;930310;-63
2024/02/14 10:15:01;;;;;;;19.80;13.20;;;;;;;;;;765881;181;918600;-63
2024/02/14 10:17:27;;;;;;;17.73;11.87;;;;;;;;;;771583;180;868548;-64
2024/02/14 10:19:58;;;;;;;20.33;13.07;;;;;;;;;;776368;180;916871;-64
2024/02/14 10:22:24;;;;;;;18.97;13.13;;;;;;;;;;768808;179;918578;-68
2024/02/14 10:24:50;;;;;;;20.63;14.20;;;;;;;;;;766393;179;921021;-68
2024/02/14 10:27:16;;;;;;;20.67;12.83;;;;;;;;;;769360;180;888645;-68
2024/02/14 10:29:43;;;;;;;16.10;11.87;;;;;;;;;;767345;180;810555;-68
2024/02/14 10:32:07;;;;;;;17.63;12.17;;;;;;;;;;770791;180;1021830;-69
2024/02/14 10:34:33;;;;;;;16.57;12.03;;;;;;;;;;771880;180;922096;-65
2024/02/14 10:36:59;;;;;;;17.50;13.03;;;;;;;;;;770988;180;867529;-69
2024/02/14 10:39:25;;;;;;;17.03;11.00;;;;;;;;;;767653;181;819640;-63
2024/02/14 10:41:51;;;;;;;18.57;11.73;;;;;;;;;;769933;179;919239;-67
2024/02/14 10:44:17;;;;;;;18.00;11.00;;;;;;;;;;768562;180;899302;-68
2024/02/14 10:46:43;;;;;;;18.70;10.33;;;;;;;;;;764306;181;918559;-67
2024/02/14 10:49:09;;;;;;;14.13;9.80;;;;;;;;;;767799;181;820564;-67
2024/02/14 10:51:35;;;;;;;10.93;8.83;;;;;;;;;;774236;180;817225;-68
2024/02/14 10:54:00;;;;;;;15.93;9.80;;;;;;;;;;772195;180;916666;-63
2024/02/14 10:56:26;;;;;;;15.07;9.43;;;;;;;;;;773566;179;816835;-64
2024/02/14 10:58:52;;;;;;;18.00;8.70;;;;;;;;;;780448;180;898721;-65
2024/02/14 11:01:18;;;;;;;17.90;11.00;;;;;;;;;;767095;180;969060;-65
2024/02/14 11:03:44;;;;;;;14.30;9.67;;;;;;;;;;765031;180;914764;-65
2024/02/14 11:06:10;;;;;;;15.33;9.33;;;;;;;;;;775826;180;851630;-64
2024/02/14 11:08:36;;;;;;;18.87;9.70;;;;;;;;;;763523;180;815318;-68
2024/02/14 11:11:01;;;;;;;16.07;9.93;;;;;;;;;;768340;178;917425;-64
2024/02/14 11:13:28;;;;;;;12.33;9.30;;;;;;;;;;768825;180;919241;-64
2024/02/14 11:15:55;;;;;;;13.90;8.10;;;;;;;;;;777516;180;919945;-64
2024/02/14 11:18:19;;;;;;;16.57;10.10;;;;;;;;;;763804;181;919683;-64
2024/02/14 11:20:48;;;;;;;13.27;8.83;;;;;;;;;;762416;182;919135;-67
2024/02/14 11:23:11;;;;;;;13.60;9.40;;;;;;;;;;761699;183;916064;-69
2024/02/14 11:25:37;;;;;;;14.87;9.23;;;;;;;;;;761553;181;862582;-68
2024/02/14 11:28:09;;;;;;;15.27;9.43;;;;;;;;;;770274;179;872374;-64
2024/02/14 11:30:35;;;;;;;12.83;9.63;;;;;;;;;;766728;180;853908;-64
2024/02/14 11:33:10;;;;;;;12.57;8.67;;;;;;;;;;773635;181;907954;-64
2024/02/14 11:35:35;;;;;;;14.77;8.83;;;;;;;;;;773744;179;631511;-64
2024/02/14 11:38:01;;;;;;;15.57;8.43;;;;;;;;;;770421;180;636088;-68
2024/02/14 11:40:27;;;;;;;15.60;9.73;;;;;;;;;;769949;181;614544;-68
2024/02/14 11:42:53;;;;;;;14.40;8.00;;;;;;;;;;768980;183;647241;-68
2024/02/14 11:45:18;;;;;;;12.60;8.97;;;;;;;;;;768439;179;807548;-69
2024/02/14 11:47:46;;;;;;;11.10;8.02;;;;;;;;;;768736;179;915951;-64
2024/02/14 11:50:10;;;;;;;12.30;7.40;;;;;;;;;;779877;180;650512;-64
2024/02/14 11:52:36;;;;;;;12.20;7.53;;;;;;;;;;769316;180;916149;-64
2024/02/14 11:55:02;;;;;;;11.30;8.10;;;;;;;;;;770045;180;672524;-64
2024/02/14 11:57:28;;;;;;;12.50;6.90;;;;;;;;;;776094;180;837362;-65
2024/02/14 11:59:54;;;;;;;10.57;7.17;;;;;;;;;;774814;180;716252;-64
2024/02/14 12:02:19;;;;;;;14.90;7.27;;;;;;;;;;771527;180;782113;-64
2024/02/14 12:04:45;;;;;;;10.80;6.70;;;;;;;;;;772846;180;914180;-63
2024/02/14 12:07:11;;;;;;;9.83;6.17;;;;;;;;;;770307;181;817628;-67
2024/02/14 12:09:37;;;;;;;10.03;6.80;;;;;;;;;;765405;180;859987;-68
2024/02/14 12:12:03;;;;;;;10.60;6.80;;;;;;;;;;765939;180;919958;-68
2024/02/14 12:14:29;;;;;;;8.40;6.13;;;;;;;;;;769451;179;916926;-67
2024/02/14 12:16:57;;;;;;;8.60;5.83;;;;;;;;;;767039;181;919037;-68
2024/02/14 12:19:23;;;;;;;8.00;6.50;;;;;;;;;;769155;180;896773;-68
2024/02/14 12:21:49;;;;;;;13.43;6.23;;;;;;;;;;776768;179;913895;-63
2024/02/14 12:24:14;;;;;;;8.97;5.57;;;;;;;;;;772729;179;913849;-68
2024/02/14 12:26:40;;;;;;;8.10;5.53;;;;;;;;;;770566;180;921777;-68
2024/02/14 12:29:07;;;;;;;12.63;7.77;;;;;;;;;;772278;179;918323;-67
2024/02/14 12:31:32;;;;;;;15.37;5.30;;;;;;;;;;770967;180;868823;-64
2024/02/14 12:33:59;;;;;;;10.07;5.63;;;;;;;;;;772533;180;919077;-67
2024/02/14 12:36:23;;;;;;;10.50;5.40;;;;;;;;;;767219;181;914336;-64
2024/02/14 12:38:49;;;;;;;9.37;6.10;;;;;;;;;;775687;180;818468;-63
2024/02/14 12:41:15;;;;;;;11.23;4.83;;;;;;;;;;768802;180;916601;-64
2024/02/14 12:43:41;;;;;;;8.47;5.50;;;;;;;;;;762942;181;918257;-67
2024/02/14 12:46:07;;;;;;;11.23;5.40;;;;;;;;;;760392;182;768007;-64
2024/02/14 12:48:33;;;;;;;12.17;6.30;;;;;;;;;;756140;183;818447;-64
2024/02/14 12:50:58;;;;;;;9.10;6.10;;;;;;;;;;756693;183;817858;-69
2024/02/14 12:53:24;;;;;;;9.63;5.55;;;;;;;;;;763810;182;1021698;-67
2024/02/14 12:55:50;;;;;;;12.83;5.43;;;;;;;;;;758238;181;932194;-67
2024/02/14 12:58:16;;;;;;;11.57;5.07;;;;;;;;;;755659;183;848922;-64
2024/02/14 13:00:42;;;;;;;12.40;4.97;;;;;;;;;;755221;183;940750;-64
2024/02/14 13:03:10;;;;;;;6.40;4.70;;;;;;;;;;761983;184;816668;-68
2024/02/14 13:05:34;;;;;;;7.77;4.33;;;;;;;;;;760532;183;814739;-67
2024/02/14 13:08:00;;;;;;;8.23;4.70;;;;;;;;;;750428;184;875095;-64
2024/02/14 13:10:25;;;;;;;7.28;4.40;;;;;;;;;;774535;179;919197;-68
2024/02/14 13:12:51;;;;;;;8.40;4.13;;;;;;;;;;770798;181;870953;-67
2024/02/14 13:15:17;;;;;;;8.13;5.70;;;;;;;;;;767409;180;919540;-64
2024/02/14 13:17:43;;;;;;;13.20;4.70;;;;;;;;;;773332;180;919093;-64
2024/02/14 13:20:09;;;;;;;9.80;5.50;;;;;;;;;;769172;180;918914;-67
2024/02/14 13:22:35;;;;;;;12.30;5.70;;;;;;;;;;770258;179;850298;-67
2024/02/14 13:25:02;;;;;;;14.83;5.80;;;;;;;;;;766944;181;917366;-67
2024/02/14 13:27:27;;;;;;;9.00;5.30;;;;;;;;;;773201;180;920317;-69
2024/02/14 13:29:53;;;;;;;11.10;5.07;;;;;;;;;;765553;180;918894;-65
2024/02/14 13:32:19;;;;;;;7.83;5.10;;;;;;;;;;769529;178;817244;-67
2024/02/14 13:34:45;;;;;;;13.90;6.13;;;;;;;;;;774515;179;918901;-67
2024/02/14 13:37:11;;;;;;;14.17;6.80;;;;;;;;;;765824;179;919289;-69
2024/02/14 13:39:36;;;;;;;8.33;5.20;;;;;;;;;;768344;180;920083;-63
2024/02/14 13:42:02;;;;;;;12.67;5.90;;;;;;;;;;778478;180;818235;-64
2024/02/14 13:44:29;;;;;;;9.33;5.00;;;;;;;;;;773223;180;919729;-69
2024/02/14 13:46:54;;;;;;;11.50;4.87;;;;;;;;;;770815;180;919391;-67
2024/02/14 13:49:22;;;;;;;9.83;5.50;;;;;;;;;;769085;179;921122;-67
2024/02/14 13:51:47;;;;;;;10.40;6.87;;;;;;;;;;767604;183;818566;-67
2024/02/14 13:54:13;;;;;;;10.80;5.30;;;;;;;;;;773248;178;817427;-67
2024/02/14 13:56:39;;;;;;;7.68;4.65;;;;;;;;;;768264;180;913975;-67
2024/02/14 13:59:05;;;;;;;7.77;5.57;;;;;;;;;;772842;181;841978;-67